sensor_id;sensor_type;location;lat;lon;timestamp;P1;durP1;ratioP1;P2;durP2;ratioP2
4323;SDS011;2175;51.018;6.994;2022-12-18T00:00:39;30.30;;;17.00;;
4323;SDS011;2175;51.018;6.994;2022-12-18T00:03:08;30.77;;;15.73;;
4323;SDS011;2175;51.018;6.994;2022-12-18T00:05:34;34.80;;;17.57;;
4323;SDS011;2175;51.018;6.994;2022-12-18T00:08:00;32.60;;;16.77;;
4323;SDS011;2175;51.018;6.994;2022-12-18T00:10:25;28.23;;;15.20;;
4323;SDS011;2175;51.018;6.994;2022-12-18T00:12:52;31.92;;;15.98;;
4323;SDS011;2175;51.018;6.994;2022-12-18T00:15:18;29.30;;;15.30;;
4323;SDS011;2175;51.018;6.994;2022-12-18T00:17:44;35.63;;;14.67;;
4323;SDS011;2175;51.018;6.994;2022-12-18T00:20:09;25.23;;;14.60;;
4323;SDS011;2175;51.018;6.994;2022-12-18T00:22:35;26.00;;;14.67;;
4323;SDS011;2175;51.018;6.994;2022-12-18T00:25:01;28.67;;;14.60;;
4323;SDS011;2175;51.018;6.994;2022-12-18T00:27:27;25.20;;;12.83;;
4323;SDS011;2175;51.018;6.994;2022-12-18T00:29:52;26.13;;;14.27;;
4323;SDS011;2175;51.018;6.994;2022-12-18T00:32:18;27.43;;;14.33;;
4323;SDS011;2175;51.018;6.994;2022-12-18T00:34:43;27.30;;;14.80;;
4323;SDS011;2175;51.018;6.994;2022-12-18T00:37:09;27.50;;;13.87;;
4323;SDS011;2175;51.018;6.994;2022-12-18T00:39:35;19.97;;;12.20;;
4323;SDS011;2175;51.018;6.994;2022-12-18T00:42:00;22.83;;;12.57;;
4323;SDS011;2175;51.018;6.994;2022-12-18T00:44:44;25.45;;;13.73;;
4323;SDS011;2175;51.018;6.994;2022-12-18T00:47:10;25.00;;;13.37;;
4323;SDS011;2175;51.018;6.994;2022-12-18T00:49:35;24.30;;;13.70;;
4323;SDS011;2175;51.018;6.994;2022-12-18T00:52:01;28.83;;;13.80;;
4323;SDS011;2175;51.018;6.994;2022-12-18T00:54:27;25.37;;;13.33;;
4323;SDS011;2175;51.018;6.994;2022-12-18T00:56:52;21.80;;;12.47;;
4323;SDS011;2175;51.018;6.994;2022-12-18T00:59:20;26.25;;;13.20;;
4323;SDS011;2175;51.018;6.994;2022-12-18T01:01:45;26.50;;;13.67;;
4323;SDS011;2175;51.018;6.994;2022-12-18T01:04:11;26.08;;;12.77;;
4323;SDS011;2175;51.018;6.994;2022-12-18T01:06:37;26.63;;;14.30;;
4323;SDS011;2175;51.018;6.994;2022-12-18T01:09:03;26.83;;;13.93;;
4323;SDS011;2175;51.018;6.994;2022-12-18T01:11:28;24.77;;;13.33;;
4323;SDS011;2175;51.018;6.994;2022-12-18T01:13:54;29.10;;;14.13;;
4323;SDS011;2175;51.018;6.994;2022-12-18T01:16:20;24.97;;;14.00;;
4323;SDS011;2175;51.018;6.994;2022-12-18T01:18:46;22.58;;;12.18;;
4323;SDS011;2175;51.018;6.994;2022-12-18T01:21:13;25.60;;;12.93;;
4323;SDS011;2175;51.018;6.994;2022-12-18T01:23:41;23.80;;;13.05;;
4323;SDS011;2175;51.018;6.994;2022-12-18T01:26:08;25.77;;;13.77;;
4323;SDS011;2175;51.018;6.994;2022-12-18T01:28:39;22.15;;;13.35;;
4323;SDS011;2175;51.018;6.994;2022-12-18T01:31:19;25.50;;;12.63;;
4323;SDS011;2175;51.018;6.994;2022-12-18T01:33:47;24.08;;;12.88;;
4323;SDS011;2175;51.018;6.994;2022-12-18T01:36:17;22.10;;;13.20;;
4323;SDS011;2175;51.018;6.994;2022-12-18T01:38:45;23.23;;;12.30;;
4323;SDS011;2175;51.018;6.994;2022-12-18T01:41:11;22.45;;;12.50;;
4323;SDS011;2175;51.018;6.994;2022-12-18T01:43:41;24.85;;;13.50;;
4323;SDS011;2175;51.018;6.994;2022-12-18T01:46:07;26.60;;;13.30;;
4323;SDS011;2175;51.018;6.994;2022-12-18T01:48:32;22.47;;;12.63;;
4323;SDS011;2175;51.018;6.994;2022-12-18T01:50:58;23.00;;;12.43;;
4323;SDS011;2175;51.018;6.994;2022-12-18T01:53:25;24.75;;;13.60;;
4323;SDS011;2175;51.018;6.994;2022-12-18T01:55:52;25.80;;;12.57;;
4323;SDS011;2175;51.018;6.994;2022-12-18T01:58:20;21.58;;;12.85;;
4323;SDS011;2175;51.018;6.994;2022-12-18T02:00:53;21.50;;;12.80;;
4323;SDS011;2175;51.018;6.994;2022-12-18T02:03:19;25.55;;;13.32;;
4323;SDS011;2175;51.018;6.994;2022-12-18T02:05:47;21.83;;;12.77;;
4323;SDS011;2175;51.018;6.994;2022-12-18T02:08:21;23.95;;;12.60;;
4323;SDS011;2175;51.018;6.994;2022-12-18T02:11:03;22.58;;;12.65;;
4323;SDS011;2175;51.018;6.994;2022-12-18T02:13:46;29.27;;;14.88;;
4323;SDS011;2175;51.018;6.994;2022-12-18T02:16:29;24.60;;;12.63;;
4323;SDS011;2175;51.018;6.994;2022-12-18T02:19:20;27.05;;;13.45;;
4323;SDS011;2175;51.018;6.994;2022-12-18T02:21:57;23.30;;;12.98;;
4323;SDS011;2175;51.018;6.994;2022-12-18T02:27:44;22.85;;;13.02;;
4323;SDS011;2175;51.018;6.994;2022-12-18T02:30:12;28.83;;;14.52;;
4323;SDS011;2175;51.018;6.994;2022-12-18T02:32:39;27.45;;;13.15;;
4323;SDS011;2175;51.018;6.994;2022-12-18T02:35:12;23.17;;;12.45;;
4323;SDS011;2175;51.018;6.994;2022-12-18T02:37:42;29.92;;;14.00;;
4323;SDS011;2175;51.018;6.994;2022-12-18T02:40:10;28.05;;;13.75;;
4323;SDS011;2175;51.018;6.994;2022-12-18T02:42:37;21.40;;;13.15;;
4323;SDS011;2175;51.018;6.994;2022-12-18T02:45:03;24.77;;;13.17;;
4323;SDS011;2175;51.018;6.994;2022-12-18T02:47:30;23.83;;;12.52;;
4323;SDS011;2175;51.018;6.994;2022-12-18T02:58:03;25.98;;;12.90;;
4323;SDS011;2175;51.018;6.994;2022-12-18T03:00:45;26.80;;;13.27;;
4323;SDS011;2175;51.018;6.994;2022-12-18T03:03:18;30.27;;;13.65;;
4323;SDS011;2175;51.018;6.994;2022-12-18T03:05:55;24.45;;;14.40;;
4323;SDS011;2175;51.018;6.994;2022-12-18T03:08:30;26.52;;;13.52;;
4323;SDS011;2175;51.018;6.994;2022-12-18T03:11:02;22.85;;;12.30;;
4323;SDS011;2175;51.018;6.994;2022-12-18T03:13:31;26.00;;;13.32;;
4323;SDS011;2175;51.018;6.994;2022-12-18T03:16:00;24.35;;;13.02;;
4323;SDS011;2175;51.018;6.994;2022-12-18T03:18:30;22.27;;;12.02;;
4323;SDS011;2175;51.018;6.994;2022-12-18T03:21:08;22.40;;;12.63;;
4323;SDS011;2175;51.018;6.994;2022-12-18T03:23:38;25.15;;;12.65;;
4323;SDS011;2175;51.018;6.994;2022-12-18T03:26:10;25.15;;;12.63;;
4323;SDS011;2175;51.018;6.994;2022-12-18T03:28:40;22.13;;;12.77;;
4323;SDS011;2175;51.018;6.994;2022-12-18T03:31:11;24.58;;;12.45;;
4323;SDS011;2175;51.018;6.994;2022-12-18T03:36:12;29.58;;;12.95;;
4323;SDS011;2175;51.018;6.994;2022-12-18T03:38:37;21.13;;;12.27;;
4323;SDS011;2175;51.018;6.994;2022-12-18T03:46:38;21.40;;;11.48;;
4323;SDS011;2175;51.018;6.994;2022-12-18T03:49:11;24.27;;;12.93;;
4323;SDS011;2175;51.018;6.994;2022-12-18T03:51:48;20.77;;;12.00;;
4323;SDS011;2175;51.018;6.994;2022-12-18T03:54:28;23.77;;;12.45;;
4323;SDS011;2175;51.018;6.994;2022-12-18T03:57:06;20.55;;;11.85;;
4323;SDS011;2175;51.018;6.994;2022-12-18T03:59:36;22.38;;;11.77;;
4323;SDS011;2175;51.018;6.994;2022-12-18T04:02:04;24.48;;;12.13;;
4323;SDS011;2175;51.018;6.994;2022-12-18T04:04:31;23.10;;;11.88;;
4323;SDS011;2175;51.018;6.994;2022-12-18T04:07:00;23.73;;;12.05;;
4323;SDS011;2175;51.018;6.994;2022-12-18T04:09:27;22.45;;;12.02;;
4323;SDS011;2175;51.018;6.994;2022-12-18T04:11:53;21.55;;;11.10;;
4323;SDS011;2175;51.018;6.994;2022-12-18T04:14:18;19.17;;;11.80;;
4323;SDS011;2175;51.018;6.994;2022-12-18T04:16:44;22.27;;;11.87;;
4323;SDS011;2175;51.018;6.994;2022-12-18T04:19:10;21.80;;;11.70;;
4323;SDS011;2175;51.018;6.994;2022-12-18T04:21:35;20.47;;;11.63;;
4323;SDS011;2175;51.018;6.994;2022-12-18T04:24:01;20.00;;;10.93;;
4323;SDS011;2175;51.018;6.994;2022-12-18T04:26:26;21.53;;;11.50;;
4323;SDS011;2175;51.018;6.994;2022-12-18T04:28:52;22.73;;;11.97;;
4323;SDS011;2175;51.018;6.994;2022-12-18T04:31:18;25.03;;;12.27;;
4323;SDS011;2175;51.018;6.994;2022-12-18T04:33:43;19.23;;;10.93;;
4323;SDS011;2175;51.018;6.994;2022-12-18T04:36:09;22.47;;;10.73;;
4323;SDS011;2175;51.018;6.994;2022-12-18T04:38:34;23.00;;;11.57;;
4323;SDS011;2175;51.018;6.994;2022-12-18T04:41:00;21.20;;;10.87;;
4323;SDS011;2175;51.018;6.994;2022-12-18T04:43:26;21.63;;;11.13;;
4323;SDS011;2175;51.018;6.994;2022-12-18T04:45:51;21.93;;;11.70;;
4323;SDS011;2175;51.018;6.994;2022-12-18T04:48:17;23.67;;;10.90;;
4323;SDS011;2175;51.018;6.994;2022-12-18T04:50:42;22.17;;;11.13;;
4323;SDS011;2175;51.018;6.994;2022-12-18T04:53:08;20.03;;;10.70;;
4323;SDS011;2175;51.018;6.994;2022-12-18T04:55:34;23.00;;;11.03;;
4323;SDS011;2175;51.018;6.994;2022-12-18T04:57:59;21.27;;;12.00;;
4323;SDS011;2175;51.018;6.994;2022-12-18T05:00:25;21.23;;;12.03;;
4323;SDS011;2175;51.018;6.994;2022-12-18T05:02:51;22.37;;;11.07;;
4323;SDS011;2175;51.018;6.994;2022-12-18T05:05:16;18.03;;;10.80;;
4323;SDS011;2175;51.018;6.994;2022-12-18T05:07:42;19.80;;;10.90;;
4323;SDS011;2175;51.018;6.994;2022-12-18T05:10:08;18.97;;;10.60;;
4323;SDS011;2175;51.018;6.994;2022-12-18T05:12:33;18.83;;;10.25;;
4323;SDS011;2175;51.018;6.994;2022-12-18T05:15:19;21.35;;;10.70;;
4323;SDS011;2175;51.018;6.994;2022-12-18T05:17:45;19.23;;;11.50;;
4323;SDS011;2175;51.018;6.994;2022-12-18T05:20:10;23.70;;;11.53;;
4323;SDS011;2175;51.018;6.994;2022-12-18T05:22:36;22.90;;;11.03;;
4323;SDS011;2175;51.018;6.994;2022-12-18T05:25:01;19.67;;;10.87;;
4323;SDS011;2175;51.018;6.994;2022-12-18T05:27:27;21.00;;;11.17;;
4323;SDS011;2175;51.018;6.994;2022-12-18T05:29:53;16.27;;;9.57;;
4323;SDS011;2175;51.018;6.994;2022-12-18T05:32:18;18.57;;;11.00;;
4323;SDS011;2175;51.018;6.994;2022-12-18T05:34:44;22.80;;;11.57;;
4323;SDS011;2175;51.018;6.994;2022-12-18T05:37:09;20.23;;;11.73;;
4323;SDS011;2175;51.018;6.994;2022-12-18T05:39:35;18.00;;;10.57;;
4323;SDS011;2175;51.018;6.994;2022-12-18T05:42:00;20.63;;;11.47;;
4323;SDS011;2175;51.018;6.994;2022-12-18T05:44:26;19.70;;;9.80;;
4323;SDS011;2175;51.018;6.994;2022-12-18T05:46:51;23.20;;;11.57;;
4323;SDS011;2175;51.018;6.994;2022-12-18T05:49:17;19.80;;;12.13;;
4323;SDS011;2175;51.018;6.994;2022-12-18T05:51:42;20.10;;;11.50;;
4323;SDS011;2175;51.018;6.994;2022-12-18T05:54:08;18.67;;;10.20;;
4323;SDS011;2175;51.018;6.994;2022-12-18T05:56:34;20.73;;;10.90;;
4323;SDS011;2175;51.018;6.994;2022-12-18T05:58:59;18.77;;;11.30;;
4323;SDS011;2175;51.018;6.994;2022-12-18T06:01:26;20.20;;;10.87;;
4323;SDS011;2175;51.018;6.994;2022-12-18T06:03:52;20.48;;;11.88;;
4323;SDS011;2175;51.018;6.994;2022-12-18T06:06:22;19.53;;;10.40;;
4323;SDS011;2175;51.018;6.994;2022-12-18T06:08:49;18.92;;;10.70;;
4323;SDS011;2175;51.018;6.994;2022-12-18T06:11:16;22.65;;;10.70;;
4323;SDS011;2175;51.018;6.994;2022-12-18T06:13:44;24.13;;;10.57;;
4323;SDS011;2175;51.018;6.994;2022-12-18T06:16:09;18.17;;;10.43;;
4323;SDS011;2175;51.018;6.994;2022-12-18T06:18:35;21.33;;;11.40;;
4323;SDS011;2175;51.018;6.994;2022-12-18T06:21:01;17.47;;;10.90;;
4323;SDS011;2175;51.018;6.994;2022-12-18T06:23:26;22.00;;;11.90;;
4323;SDS011;2175;51.018;6.994;2022-12-18T06:25:52;19.67;;;10.97;;
4323;SDS011;2175;51.018;6.994;2022-12-18T06:28:18;22.50;;;11.80;;
4323;SDS011;2175;51.018;6.994;2022-12-18T06:30:43;26.33;;;11.70;;
4323;SDS011;2175;51.018;6.994;2022-12-18T06:33:10;20.13;;;10.50;;
4323;SDS011;2175;51.018;6.994;2022-12-18T06:35:36;20.63;;;12.73;;
4323;SDS011;2175;51.018;6.994;2022-12-18T06:38:02;19.83;;;11.73;;
4323;SDS011;2175;51.018;6.994;2022-12-18T06:40:28;20.45;;;11.40;;
4323;SDS011;2175;51.018;6.994;2022-12-18T06:42:54;21.52;;;11.55;;
4323;SDS011;2175;51.018;6.994;2022-12-18T06:45:19;22.13;;;11.93;;
4323;SDS011;2175;51.018;6.994;2022-12-18T06:47:45;23.17;;;11.90;;
4323;SDS011;2175;51.018;6.994;2022-12-18T06:50:11;21.07;;;11.83;;
4323;SDS011;2175;51.018;6.994;2022-12-18T06:52:43;20.33;;;11.43;;
4323;SDS011;2175;51.018;6.994;2022-12-18T06:55:09;20.95;;;11.82;;
4323;SDS011;2175;51.018;6.994;2022-12-18T06:57:35;22.45;;;11.30;;
4323;SDS011;2175;51.018;6.994;2022-12-18T07:00:01;21.80;;;12.10;;
4323;SDS011;2175;51.018;6.994;2022-12-18T07:02:27;22.38;;;12.40;;
4323;SDS011;2175;51.018;6.994;2022-12-18T07:04:53;24.00;;;12.67;;
4323;SDS011;2175;51.018;6.994;2022-12-18T07:07:18;21.87;;;12.57;;
4323;SDS011;2175;51.018;6.994;2022-12-18T07:09:44;25.50;;;13.90;;
4323;SDS011;2175;51.018;6.994;2022-12-18T07:12:10;25.27;;;12.80;;
4323;SDS011;2175;51.018;6.994;2022-12-18T07:14:35;21.83;;;13.10;;
4323;SDS011;2175;51.018;6.994;2022-12-18T07:17:01;25.93;;;13.10;;
4323;SDS011;2175;51.018;6.994;2022-12-18T07:19:26;25.33;;;13.30;;
4323;SDS011;2175;51.018;6.994;2022-12-18T07:21:52;23.17;;;12.17;;
4323;SDS011;2175;51.018;6.994;2022-12-18T07:24:18;22.43;;;12.63;;
4323;SDS011;2175;51.018;6.994;2022-12-18T07:26:45;23.63;;;12.30;;
4323;SDS011;2175;51.018;6.994;2022-12-18T07:29:11;27.63;;;12.90;;
4323;SDS011;2175;51.018;6.994;2022-12-18T07:31:37;19.87;;;12.00;;
4323;SDS011;2175;51.018;6.994;2022-12-18T07:34:02;25.37;;;12.47;;
4323;SDS011;2175;51.018;6.994;2022-12-18T07:36:29;25.47;;;13.37;;
4323;SDS011;2175;51.018;6.994;2022-12-18T07:38:55;22.88;;;13.27;;
4323;SDS011;2175;51.018;6.994;2022-12-18T07:41:21;24.23;;;12.70;;
4323;SDS011;2175;51.018;6.994;2022-12-18T07:43:47;27.60;;;13.37;;
4323;SDS011;2175;51.018;6.994;2022-12-18T07:46:13;23.83;;;12.77;;
4323;SDS011;2175;51.018;6.994;2022-12-18T07:48:41;24.33;;;13.23;;
4323;SDS011;2175;51.018;6.994;2022-12-18T07:51:07;23.92;;;13.40;;
4323;SDS011;2175;51.018;6.994;2022-12-18T07:53:34;35.35;;;15.35;;
4323;SDS011;2175;51.018;6.994;2022-12-18T07:56:02;25.95;;;13.80;;
4323;SDS011;2175;51.018;6.994;2022-12-18T07:58:31;31.17;;;13.68;;
4323;SDS011;2175;51.018;6.994;2022-12-18T08:01:08;24.60;;;13.45;;
4323;SDS011;2175;51.018;6.994;2022-12-18T08:03:35;22.52;;;13.10;;
4323;SDS011;2175;51.018;6.994;2022-12-18T08:06:02;30.75;;;14.40;;
4323;SDS011;2175;51.018;6.994;2022-12-18T08:08:29;26.20;;;13.18;;
4323;SDS011;2175;51.018;6.994;2022-12-18T08:10:56;28.35;;;15.30;;
4323;SDS011;2175;51.018;6.994;2022-12-18T08:13:22;28.48;;;13.88;;
4323;SDS011;2175;51.018;6.994;2022-12-18T08:15:58;29.67;;;14.60;;
4323;SDS011;2175;51.018;6.994;2022-12-18T08:18:25;23.55;;;13.02;;
4323;SDS011;2175;51.018;6.994;2022-12-18T08:20:50;27.10;;;14.23;;
4323;SDS011;2175;51.018;6.994;2022-12-18T08:23:16;26.30;;;13.80;;
4323;SDS011;2175;51.018;6.994;2022-12-18T08:25:42;28.37;;;14.47;;
4323;SDS011;2175;51.018;6.994;2022-12-18T08:28:07;29.63;;;14.20;;
4323;SDS011;2175;51.018;6.994;2022-12-18T08:30:33;27.63;;;14.80;;
4323;SDS011;2175;51.018;6.994;2022-12-18T08:32:59;48.87;;;16.80;;
4323;SDS011;2175;51.018;6.994;2022-12-18T08:35:24;30.50;;;14.50;;
4323;SDS011;2175;51.018;6.994;2022-12-18T08:37:50;25.10;;;13.60;;
4323;SDS011;2175;51.018;6.994;2022-12-18T08:40:15;31.73;;;13.67;;
4323;SDS011;2175;51.018;6.994;2022-12-18T08:42:41;24.77;;;13.87;;
4323;SDS011;2175;51.018;6.994;2022-12-18T08:45:25;25.20;;;12.88;;
4323;SDS011;2175;51.018;6.994;2022-12-18T08:47:51;23.53;;;13.47;;
4323;SDS011;2175;51.018;6.994;2022-12-18T08:50:17;22.23;;;13.80;;
4323;SDS011;2175;51.018;6.994;2022-12-18T08:52:42;21.00;;;13.17;;
4323;SDS011;2175;51.018;6.994;2022-12-18T08:55:08;27.93;;;14.23;;
4323;SDS011;2175;51.018;6.994;2022-12-18T08:57:34;26.65;;;14.52;;
4323;SDS011;2175;51.018;6.994;2022-12-18T09:00:00;25.17;;;13.50;;
4323;SDS011;2175;51.018;6.994;2022-12-18T09:02:26;27.87;;;14.40;;
4323;SDS011;2175;51.018;6.994;2022-12-18T09:04:51;29.20;;;14.67;;
4323;SDS011;2175;51.018;6.994;2022-12-18T09:07:17;23.13;;;13.63;;
4323;SDS011;2175;51.018;6.994;2022-12-18T09:09:42;27.07;;;14.53;;
4323;SDS011;2175;51.018;6.994;2022-12-18T09:12:11;27.23;;;13.63;;
4323;SDS011;2175;51.018;6.994;2022-12-18T09:14:37;23.13;;;14.13;;
4323;SDS011;2175;51.018;6.994;2022-12-18T09:17:02;24.33;;;14.20;;
4323;SDS011;2175;51.018;6.994;2022-12-18T09:19:28;25.80;;;14.57;;
4323;SDS011;2175;51.018;6.994;2022-12-18T09:21:54;28.13;;;14.90;;
4323;SDS011;2175;51.018;6.994;2022-12-18T09:24:19;23.43;;;13.63;;
4323;SDS011;2175;51.018;6.994;2022-12-18T09:26:45;23.67;;;13.47;;
4323;SDS011;2175;51.018;6.994;2022-12-18T09:29:11;26.37;;;14.30;;
4323;SDS011;2175;51.018;6.994;2022-12-18T09:31:36;20.47;;;13.47;;
4323;SDS011;2175;51.018;6.994;2022-12-18T09:34:03;26.88;;;14.38;;
4323;SDS011;2175;51.018;6.994;2022-12-18T09:36:30;23.63;;;13.95;;
4323;SDS011;2175;51.018;6.994;2022-12-18T09:38:59;24.55;;;13.30;;
4323;SDS011;2175;51.018;6.994;2022-12-18T09:44:17;20.77;;;12.35;;
4323;SDS011;2175;51.018;6.994;2022-12-18T09:49:53;29.92;;;14.05;;
4323;SDS011;2175;51.018;6.994;2022-12-18T09:54:50;27.50;;;12.00;;
4323;SDS011;2175;51.018;6.994;2022-12-18T09:57:20;23.42;;;12.68;;
4323;SDS011;2175;51.018;6.994;2022-12-18T10:00:11;25.48;;;13.30;;
4323;SDS011;2175;51.018;6.994;2022-12-18T10:02:41;21.05;;;12.13;;
4323;SDS011;2175;51.018;6.994;2022-12-18T10:05:07;20.70;;;12.00;;
4323;SDS011;2175;51.018;6.994;2022-12-18T10:07:42;21.65;;;12.85;;
4323;SDS011;2175;51.018;6.994;2022-12-18T10:10:30;24.63;;;11.85;;
4323;SDS011;2175;51.018;6.994;2022-12-18T10:13:09;21.33;;;13.05;;
4323;SDS011;2175;51.018;6.994;2022-12-18T10:21:45;21.20;;;12.23;;
4323;SDS011;2175;51.018;6.994;2022-12-18T10:27:22;21.98;;;12.30;;
4323;SDS011;2175;51.018;6.994;2022-12-18T10:29:50;21.45;;;11.10;;
4323;SDS011;2175;51.018;6.994;2022-12-18T10:32:17;21.37;;;13.10;;
4323;SDS011;2175;51.018;6.994;2022-12-18T10:34:50;21.00;;;12.75;;
4323;SDS011;2175;51.018;6.994;2022-12-18T10:37:18;21.02;;;11.55;;
4323;SDS011;2175;51.018;6.994;2022-12-18T10:39:46;22.27;;;12.48;;
4323;SDS011;2175;51.018;6.994;2022-12-18T10:42:40;16.80;;;10.50;;
4323;SDS011;2175;51.018;6.994;2022-12-18T10:47:41;21.33;;;12.00;;
4323;SDS011;2175;51.018;6.994;2022-12-18T10:50:32;23.30;;;12.70;;
4323;SDS011;2175;51.018;6.994;2022-12-18T10:52:59;22.60;;;12.43;;
4323;SDS011;2175;51.018;6.994;2022-12-18T10:55:31;19.20;;;11.85;;
4323;SDS011;2175;51.018;6.994;2022-12-18T10:58:21;22.65;;;12.00;;
4323;SDS011;2175;51.018;6.994;2022-12-18T11:03:40;20.48;;;11.48;;
4323;SDS011;2175;51.018;6.994;2022-12-18T11:06:11;23.33;;;12.57;;
4323;SDS011;2175;51.018;6.994;2022-12-18T11:08:39;22.55;;;12.68;;
4323;SDS011;2175;51.018;6.994;2022-12-18T11:11:14;21.25;;;12.40;;
4323;SDS011;2175;51.018;6.994;2022-12-18T11:13:50;24.35;;;13.00;;
4323;SDS011;2175;51.018;6.994;2022-12-18T11:16:28;19.50;;;12.27;;
4323;SDS011;2175;51.018;6.994;2022-12-18T11:19:12;24.73;;;13.38;;
4323;SDS011;2175;51.018;6.994;2022-12-18T11:21:55;22.15;;;12.85;;
4323;SDS011;2175;51.018;6.994;2022-12-18T11:24:31;22.33;;;13.27;;
4323;SDS011;2175;51.018;6.994;2022-12-18T11:27:05;24.45;;;13.15;;
4323;SDS011;2175;51.018;6.994;2022-12-18T11:29:42;21.95;;;13.25;;
4323;SDS011;2175;51.018;6.994;2022-12-18T11:34:41;26.60;;;14.02;;
4323;SDS011;2175;51.018;6.994;2022-12-18T11:37:11;30.00;;;13.43;;
4323;SDS011;2175;51.018;6.994;2022-12-18T11:39:44;24.27;;;13.60;;
4323;SDS011;2175;51.018;6.994;2022-12-18T11:42:28;22.50;;;12.65;;
4323;SDS011;2175;51.018;6.994;2022-12-18T11:50:11;26.17;;;14.50;;
4323;SDS011;2175;51.018;6.994;2022-12-18T11:52:40;25.63;;;13.60;;
4323;SDS011;2175;51.018;6.994;2022-12-18T11:57:54;27.17;;;13.90;;
4323;SDS011;2175;51.018;6.994;2022-12-18T12:00:45;22.73;;;13.40;;
4323;SDS011;2175;51.018;6.994;2022-12-18T12:06:53;27.50;;;15.05;;
4323;SDS011;2175;51.018;6.994;2022-12-18T12:17:22;28.23;;;16.35;;
4323;SDS011;2175;51.018;6.994;2022-12-18T12:25:38;31.58;;;15.27;;
4323;SDS011;2175;51.018;6.994;2022-12-18T12:36:35;29.63;;;16.05;;
4323;SDS011;2175;51.018;6.994;2022-12-18T12:39:08;28.45;;;16.40;;
4323;SDS011;2175;51.018;6.994;2022-12-18T12:41:39;28.77;;;15.85;;
4323;SDS011;2175;51.018;6.994;2022-12-18T12:44:26;27.92;;;15.95;;
4323;SDS011;2175;51.018;6.994;2022-12-18T12:47:40;29.85;;;15.82;;
4323;SDS011;2175;51.018;6.994;2022-12-18T12:50:03;30.75;;;15.85;;
4323;SDS011;2175;51.018;6.994;2022-12-18T12:52:40;28.75;;;16.60;;
4323;SDS011;2175;51.018;6.994;2022-12-18T12:55:17;28.98;;;15.77;;
4323;SDS011;2175;51.018;6.994;2022-12-18T13:00:20;28.23;;;18.10;;
4323;SDS011;2175;51.018;6.994;2022-12-18T13:03:00;31.98;;;17.55;;
4323;SDS011;2175;51.018;6.994;2022-12-18T13:08:12;32.70;;;17.52;;
4323;SDS011;2175;51.018;6.994;2022-12-18T13:10:49;32.50;;;17.85;;
4323;SDS011;2175;51.018;6.994;2022-12-18T13:13:47;33.03;;;17.92;;
4323;SDS011;2175;51.018;6.994;2022-12-18T13:16:19;35.75;;;19.17;;
4323;SDS011;2175;51.018;6.994;2022-12-18T13:18:53;29.30;;;17.85;;
4323;SDS011;2175;51.018;6.994;2022-12-18T13:23:53;28.98;;;16.88;;
4323;SDS011;2175;51.018;6.994;2022-12-18T13:28:53;32.55;;;17.80;;
4323;SDS011;2175;51.018;6.994;2022-12-18T13:36:49;32.28;;;17.60;;
4323;SDS011;2175;51.018;6.994;2022-12-18T13:41:48;33.00;;;18.98;;
4323;SDS011;2175;51.018;6.994;2022-12-18T13:44:33;33.03;;;16.80;;
4323;SDS011;2175;51.018;6.994;2022-12-18T13:47:05;34.22;;;19.20;;
4323;SDS011;2175;51.018;6.994;2022-12-18T13:49:51;36.22;;;19.38;;
4323;SDS011;2175;51.018;6.994;2022-12-18T13:52:19;29.77;;;18.17;;
4323;SDS011;2175;51.018;6.994;2022-12-18T13:54:55;33.70;;;18.92;;
4323;SDS011;2175;51.018;6.994;2022-12-18T13:59:53;30.92;;;17.63;;
4323;SDS011;2175;51.018;6.994;2022-12-18T14:02:23;32.40;;;18.90;;
4323;SDS011;2175;51.018;6.994;2022-12-18T14:04:51;35.05;;;19.27;;
4323;SDS011;2175;51.018;6.994;2022-12-18T14:07:27;31.58;;;18.00;;
4323;SDS011;2175;51.018;6.994;2022-12-18T14:09:54;32.58;;;18.38;;
4323;SDS011;2175;51.018;6.994;2022-12-18T14:17:57;36.28;;;19.75;;
4323;SDS011;2175;51.018;6.994;2022-12-18T14:20:25;31.42;;;18.38;;
4323;SDS011;2175;51.018;6.994;2022-12-18T14:22:52;34.40;;;19.50;;
4323;SDS011;2175;51.018;6.994;2022-12-18T14:30:35;36.97;;;18.77;;
4323;SDS011;2175;51.018;6.994;2022-12-18T14:33:10;37.85;;;20.25;;
4323;SDS011;2175;51.018;6.994;2022-12-18T14:35:37;32.63;;;18.95;;
4323;SDS011;2175;51.018;6.994;2022-12-18T14:38:47;36.55;;;19.50;;
4323;SDS011;2175;51.018;6.994;2022-12-18T14:41:05;33.88;;;19.27;;
4323;SDS011;2175;51.018;6.994;2022-12-18T14:43:35;38.47;;;20.15;;
4323;SDS011;2175;51.018;6.994;2022-12-18T14:46:03;41.40;;;20.67;;
4323;SDS011;2175;51.018;6.994;2022-12-18T14:48:47;35.88;;;19.73;;
4323;SDS011;2175;51.018;6.994;2022-12-18T14:51:20;37.40;;;21.17;;
4323;SDS011;2175;51.018;6.994;2022-12-18T14:56:21;39.28;;;20.60;;
4323;SDS011;2175;51.018;6.994;2022-12-18T14:58:56;38.63;;;20.50;;
4323;SDS011;2175;51.018;6.994;2022-12-18T15:01:25;36.70;;;20.15;;
4323;SDS011;2175;51.018;6.994;2022-12-18T15:03:54;39.17;;;21.58;;
4323;SDS011;2175;51.018;6.994;2022-12-18T15:06:24;36.30;;;19.67;;
4323;SDS011;2175;51.018;6.994;2022-12-18T15:08:51;34.75;;;20.17;;
4323;SDS011;2175;51.018;6.994;2022-12-18T15:11:32;39.63;;;21.13;;
4323;SDS011;2175;51.018;6.994;2022-12-18T15:16:57;36.28;;;19.65;;
4323;SDS011;2175;51.018;6.994;2022-12-18T15:19:32;34.92;;;20.85;;
4323;SDS011;2175;51.018;6.994;2022-12-18T15:21:58;38.00;;;20.63;;
4323;SDS011;2175;51.018;6.994;2022-12-18T15:24:27;36.23;;;20.57;;
4323;SDS011;2175;51.018;6.994;2022-12-18T15:26:59;37.22;;;21.73;;
4323;SDS011;2175;51.018;6.994;2022-12-18T15:29:33;39.30;;;21.60;;
4323;SDS011;2175;51.018;6.994;2022-12-18T15:32:20;41.35;;;21.25;;
4323;SDS011;2175;51.018;6.994;2022-12-18T15:34:45;37.67;;;21.15;;
4323;SDS011;2175;51.018;6.994;2022-12-18T15:37:11;39.93;;;21.27;;
4323;SDS011;2175;51.018;6.994;2022-12-18T15:39:36;40.97;;;21.97;;
4323;SDS011;2175;51.018;6.994;2022-12-18T15:42:02;37.90;;;20.93;;
4323;SDS011;2175;51.018;6.994;2022-12-18T15:44:46;42.08;;;20.73;;
4323;SDS011;2175;51.018;6.994;2022-12-18T15:47:13;34.60;;;21.73;;
4323;SDS011;2175;51.018;6.994;2022-12-18T15:49:40;40.73;;;22.57;;
4323;SDS011;2175;51.018;6.994;2022-12-18T15:52:06;47.10;;;23.92;;
4323;SDS011;2175;51.018;6.994;2022-12-18T15:54:34;41.33;;;22.05;;
4323;SDS011;2175;51.018;6.994;2022-12-18T15:57:18;45.05;;;23.02;;
4323;SDS011;2175;51.018;6.994;2022-12-18T15:59:56;42.63;;;24.20;;
4323;SDS011;2175;51.018;6.994;2022-12-18T16:02:23;39.25;;;24.02;;
4323;SDS011;2175;51.018;6.994;2022-12-18T16:04:50;37.90;;;21.77;;
4323;SDS011;2175;51.018;6.994;2022-12-18T16:07:17;42.30;;;23.10;;
4323;SDS011;2175;51.018;6.994;2022-12-18T16:09:42;42.10;;;22.63;;
4323;SDS011;2175;51.018;6.994;2022-12-18T16:12:19;42.43;;;23.93;;
4323;SDS011;2175;51.018;6.994;2022-12-18T16:14:47;45.13;;;23.35;;
4323;SDS011;2175;51.018;6.994;2022-12-18T16:17:13;41.00;;;23.20;;
4323;SDS011;2175;51.018;6.994;2022-12-18T16:19:39;44.33;;;25.75;;
4323;SDS011;2175;51.018;6.994;2022-12-18T16:22:05;48.40;;;24.87;;
4323;SDS011;2175;51.018;6.994;2022-12-18T16:24:38;43.75;;;23.40;;
4323;SDS011;2175;51.018;6.994;2022-12-18T16:27:05;49.50;;;26.10;;
4323;SDS011;2175;51.018;6.994;2022-12-18T16:29:30;48.65;;;25.92;;
4323;SDS011;2175;51.018;6.994;2022-12-18T16:31:57;44.80;;;25.73;;
4323;SDS011;2175;51.018;6.994;2022-12-18T16:34:27;44.92;;;24.60;;
4323;SDS011;2175;51.018;6.994;2022-12-18T16:37:01;47.58;;;25.92;;
4323;SDS011;2175;51.018;6.994;2022-12-18T16:39:31;46.85;;;25.25;;
4323;SDS011;2175;51.018;6.994;2022-12-18T16:41:59;44.63;;;25.38;;
4323;SDS011;2175;51.018;6.994;2022-12-18T16:44:27;47.72;;;25.05;;
4323;SDS011;2175;51.018;6.994;2022-12-18T16:46:52;45.75;;;24.77;;
4323;SDS011;2175;51.018;6.994;2022-12-18T16:49:18;51.20;;;28.20;;
4323;SDS011;2175;51.018;6.994;2022-12-18T16:51:47;50.90;;;26.50;;
4323;SDS011;2175;51.018;6.994;2022-12-18T16:54:12;44.88;;;25.95;;
4323;SDS011;2175;51.018;6.994;2022-12-18T16:56:38;54.87;;;26.80;;